createdAt,value
2023-03-02T00:01:52.676Z,4.37
2023-03-02T00:04:23.286Z,4.36
2023-03-02T00:06:51.822Z,4.40
2023-03-02T00:09:18.401Z,4.43
2023-03-02T00:11:45.719Z,4.40
2023-03-02T00:14:12.215Z,4.40
2023-03-02T00:16:40.159Z,4.48
2023-03-02T00:19:06.570Z,4.54
2023-03-02T00:21:33.031Z,4.61
2023-03-02T00:23:59.518Z,4.61
2023-03-02T00:26:25.985Z,4.61
2023-03-02T00:28:52.389Z,4.66
2023-03-02T00:31:19.615Z,4.70
2023-03-02T00:33:46.188Z,4.65
2023-03-02T00:36:17.659Z,4.54
2023-03-02T00:38:44.243Z,4.54
2023-03-02T00:41:12.572Z,4.51
2023-03-02T00:43:39.494Z,4.45
2023-03-02T00:46:10.963Z,4.52
2023-03-02T00:48:37.484Z,4.50
2023-03-02T00:51:04.406Z,4.57
2023-03-02T00:53:31.009Z,4.61
2023-03-02T00:55:57.502Z,4.60
2023-03-02T00:58:23.960Z,4.60
2023-03-02T01:00:50.407Z,4.69
2023-03-02T01:03:16.889Z,4.72
2023-03-02T01:05:43.528Z,4.74
2023-03-02T01:08:09.991Z,4.75
2023-03-02T01:10:37.496Z,4.65
2023-03-02T01:13:04.599Z,4.63
2023-03-02T01:15:31.013Z,4.60
2023-03-02T01:18:22.041Z,4.69
2023-03-02T01:20:48.468Z,4.71
2023-03-02T01:23:14.880Z,4.74
2023-03-02T01:25:41.315Z,4.73
2023-03-02T01:28:07.742Z,4.72
2023-03-02T01:30:34.200Z,4.69
2023-03-02T01:33:00.651Z,4.70
2023-03-02T01:35:27.109Z,4.70
2023-03-02T01:37:53.604Z,4.76
2023-03-02T01:40:20.141Z,4.78
2023-03-02T01:42:51.329Z,4.81
2023-03-02T01:45:56.149Z,4.81
2023-03-02T01:48:29.857Z,4.82
2023-03-02T01:50:57.464Z,4.86
2023-03-02T01:53:26.305Z,4.82
2023-03-02T01:55:53.280Z,4.87
2023-03-02T01:58:20.896Z,4.91
2023-03-02T02:00:47.935Z,4.86
2023-03-02T02:03:21.057Z,4.87
2023-03-02T02:06:18.039Z,4.87
2023-03-02T02:08:46.162Z,4.87
2023-03-02T02:11:13.351Z,4.91
2023-03-02T02:13:40.134Z,4.91
2023-03-02T02:16:07.209Z,4.89
2023-03-02T02:18:40.112Z,4.84
2023-03-02T02:21:08.322Z,4.79
2023-03-02T02:23:37.502Z,4.81
2023-03-02T02:26:28.902Z,4.81
2023-03-02T02:28:58.180Z,4.76
2023-03-02T02:31:42.238Z,4.75
2023-03-02T02:34:41.136Z,4.76
2023-03-02T02:37:14.278Z,4.78
2023-03-02T02:39:45.866Z,4.79
2023-03-02T02:42:18.482Z,4.82
2023-03-02T02:44:45.000Z,4.80
2023-03-02T02:47:18.318Z,4.89
2023-03-02T02:49:46.834Z,4.93
2023-03-02T02:52:17.506Z,4.93
2023-03-02T02:54:46.816Z,4.91
2023-03-02T02:57:17.694Z,4.91
2023-03-02T02:59:55.996Z,4.87
2023-03-02T03:02:25.160Z,4.85
2023-03-02T03:04:52.328Z,4.76
2023-03-02T03:07:24.720Z,4.78
2023-03-02T03:10:01.474Z,4.81
2023-03-02T03:12:31.012Z,4.76
2023-03-02T03:14:58.818Z,4.72
2023-03-02T03:17:25.297Z,4.65
2023-03-02T03:19:51.723Z,4.66
2023-03-02T03:22:18.189Z,4.68
2023-03-02T03:24:46.037Z,4.67
2023-03-02T03:27:15.570Z,4.65
2023-03-02T03:29:45.577Z,4.68
2023-03-02T03:32:12.037Z,4.75
2023-03-02T03:34:40.598Z,4.77
2023-03-02T03:37:13.019Z,4.78
2023-03-02T03:39:39.669Z,4.80
2023-03-02T03:42:06.420Z,4.76
2023-03-02T03:44:32.984Z,4.74
2023-03-02T03:46:59.651Z,4.78
2023-03-02T03:49:26.933Z,4.78
2023-03-02T03:51:53.474Z,4.87
2023-03-02T03:54:20.183Z,4.86
2023-03-02T03:56:49.835Z,4.82
2023-03-02T03:59:20.557Z,4.82
2023-03-02T04:01:56.176Z,4.83
2023-03-02T04:04:30.276Z,4.85
2023-03-02T04:06:57.234Z,4.85
2023-03-02T04:09:24.764Z,4.87
2023-03-02T04:11:54.185Z,4.87
2023-03-02T04:14:22.565Z,4.81
2023-03-02T04:16:49.330Z,4.74
2023-03-02T04:19:17.510Z,4.75
2023-03-02T04:21:47.514Z,4.78
2023-03-02T04:24:14.694Z,4.80
2023-03-02T04:26:42.433Z,4.77
2023-03-02T04:29:10.295Z,4.80
2023-03-02T04:31:36.804Z,4.81
2023-03-02T04:34:06.565Z,4.84
2023-03-02T04:36:36.540Z,4.78
2023-03-02T04:39:05.172Z,4.72
2023-03-02T04:41:32.104Z,4.70
2023-03-02T04:43:58.580Z,4.61
2023-03-02T04:46:26.757Z,4.57
2023-03-02T04:48:55.040Z,4.60
2023-03-02T04:51:34.940Z,4.71
2023-03-02T04:54:07.341Z,4.71
2023-03-02T04:56:34.578Z,4.72
2023-03-02T04:59:01.225Z,4.66
2023-03-02T05:01:27.784Z,4.66
2023-03-02T05:03:54.292Z,4.61
2023-03-02T05:06:21.824Z,4.58
2023-03-02T05:08:48.564Z,4.52
2023-03-02T05:11:21.979Z,4.47
2023-03-02T05:13:53.535Z,4.58
2023-03-02T05:16:20.683Z,4.54
2023-03-02T05:18:48.089Z,4.56
2023-03-02T05:21:15.343Z,4.57
2023-03-02T05:23:42.792Z,4.62
2023-03-02T05:26:10.088Z,4.66
2023-03-02T05:28:36.948Z,4.63
2023-03-02T05:31:03.808Z,4.60
2023-03-02T05:33:30.879Z,4.50
2023-03-02T05:35:57.631Z,4.57
2023-03-02T05:38:24.138Z,4.64
2023-03-02T05:40:50.631Z,4.68
2023-03-02T05:43:20.077Z,4.66
2023-03-02T05:45:46.606Z,4.62
2023-03-02T05:48:14.227Z,4.53
2023-03-02T05:50:41.302Z,4.52
2023-03-02T05:53:07.861Z,4.51
2023-03-02T05:55:37.907Z,4.48
2023-03-02T05:58:06.666Z,4.49
2023-03-02T06:00:33.210Z,4.54
2023-03-02T06:02:59.796Z,4.48
2023-03-02T06:05:26.334Z,4.38
2023-03-02T06:07:52.820Z,4.29
2023-03-02T06:10:19.380Z,4.25
2023-03-02T06:12:45.802Z,4.34
2023-03-02T06:15:12.285Z,4.42
2023-03-02T06:17:38.849Z,4.44
2023-03-02T06:20:10.903Z,4.44
2023-03-02T06:22:43.041Z,4.49
2023-03-02T06:25:11.762Z,4.50
2023-03-02T06:27:39.425Z,4.47
2023-03-02T06:30:07.472Z,4.45
2023-03-02T06:32:35.249Z,4.45
2023-03-02T06:35:03.217Z,4.49
2023-03-02T06:37:31.054Z,4.53
2023-03-02T06:39:58.403Z,4.54
2023-03-02T06:42:26.633Z,4.60
2023-03-02T06:44:54.937Z,4.69
2023-03-02T06:47:22.241Z,4.72
2023-03-02T06:49:49.213Z,4.75
2023-03-02T06:52:16.319Z,4.82
2023-03-02T06:54:42.956Z,4.84
2023-03-02T06:57:09.493Z,4.87
2023-03-02T06:59:35.992Z,4.91
2023-03-02T07:02:02.636Z,4.95
2023-03-02T07:04:29.153Z,4.97
2023-03-02T07:06:55.906Z,4.98
2023-03-02T07:09:23.112Z,5.01
2023-03-02T07:11:49.650Z,5.05
2023-03-02T07:14:16.194Z,5.12
2023-03-02T07:16:42.789Z,5.12
2023-03-02T07:19:13.744Z,5.11
2023-03-02T07:21:40.942Z,5.13
2023-03-02T07:24:07.886Z,5.15
2023-03-02T07:26:34.450Z,5.19
2023-03-02T07:29:01.020Z,5.22
2023-03-02T07:31:28.282Z,5.28
2023-03-02T07:33:54.776Z,5.29
2023-03-02T07:36:21.326Z,5.31
2023-03-02T07:38:48.642Z,5.40
2023-03-02T07:41:17.097Z,5.39
2023-03-02T07:43:44.139Z,5.41
2023-03-02T07:46:44.980Z,5.49
2023-03-02T07:49:11.425Z,5.55
2023-03-02T07:51:37.892Z,5.59
2023-03-02T07:54:05.053Z,5.55
2023-03-02T07:56:32.010Z,5.61
2023-03-02T07:58:58.621Z,5.68
2023-03-02T08:01:25.362Z,5.71
2023-03-02T08:03:52.130Z,5.75
2023-03-02T08:06:18.839Z,5.77
2023-03-02T08:08:45.695Z,5.84
2023-03-02T08:11:15.220Z,5.99
2023-03-02T08:13:42.562Z,6.17
2023-03-02T08:16:11.476Z,6.26
2023-03-02T08:18:38.805Z,6.33
2023-03-02T08:21:12.350Z,6.40
2023-03-02T08:23:38.973Z,6.49
2023-03-02T08:26:05.770Z,6.59
2023-03-02T08:28:32.371Z,6.66
2023-03-02T08:30:59.704Z,6.59
2023-03-02T08:33:27.958Z,6.64
2023-03-02T08:35:57.395Z,6.64
2023-03-02T08:38:24.462Z,6.76
2023-03-02T08:40:52.481Z,6.87
2023-03-02T08:43:20.235Z,6.96
2023-03-02T08:45:54.445Z,6.98
2023-03-02T08:48:22.331Z,7.03
2023-03-02T08:51:00.730Z,7.00
2023-03-02T08:53:29.724Z,7.10
2023-03-02T08:55:56.292Z,7.15
2023-03-02T08:58:22.871Z,7.17
2023-03-02T09:00:49.529Z,7.17
2023-03-02T09:03:16.366Z,7.20
2023-03-02T09:05:43.517Z,7.29
2023-03-02T09:08:11.035Z,7.29
2023-03-02T09:10:38.074Z,7.20
2023-03-02T09:13:08.074Z,7.24
2023-03-02T09:15:35.059Z,7.30
2023-03-02T09:18:01.589Z,7.36
2023-03-02T09:20:28.090Z,7.36
2023-03-02T09:22:54.582Z,7.38
2023-03-02T09:25:21.118Z,7.46
2023-03-02T09:27:47.663Z,7.53
2023-03-02T09:30:15.431Z,7.52
2023-03-02T09:32:42.412Z,7.53
2023-03-02T09:35:09.035Z,7.45
2023-03-02T09:37:38.643Z,7.48
2023-03-02T09:40:15.515Z,7.52
2023-03-02T09:42:53.832Z,7.54
2023-03-02T09:45:38.481Z,7.54
2023-03-02T09:48:38.175Z,7.53
2023-03-02T09:51:20.236Z,7.57
2023-03-02T09:53:56.094Z,7.58
2023-03-02T09:56:22.758Z,7.66
2023-03-02T09:59:04.274Z,7.70
2023-03-02T10:01:41.726Z,7.69
2023-03-02T10:04:30.347Z,7.70
2023-03-02T10:07:12.762Z,7.73
2023-03-02T10:09:39.872Z,7.78
2023-03-02T10:16:03.128Z,7.94
2023-03-02T10:18:51.038Z,8.15
2023-03-02T10:21:39.025Z,8.31
2023-03-02T10:24:30.895Z,8.31
2023-03-02T10:27:16.072Z,8.51
2023-03-02T10:29:54.407Z,8.63
2023-03-02T10:32:23.583Z,8.70
2023-03-02T10:34:52.172Z,8.82
2023-03-02T10:37:22.867Z,8.94
2023-03-02T10:39:49.697Z,8.96
2023-03-02T10:42:28.752Z,8.96
2023-03-02T10:45:28.316Z,8.96
2023-03-02T10:48:10.295Z,8.96
2023-03-02T10:50:37.537Z,8.98
2023-03-02T10:53:08.439Z,9.00
2023-03-02T10:55:35.464Z,8.89
2023-03-02T10:58:05.806Z,8.88
2023-03-02T11:00:34.618Z,8.88
2023-03-02T11:03:04.060Z,8.90
2023-03-02T11:05:36.392Z,8.92
2023-03-02T11:08:09.752Z,8.93
2023-03-02T11:10:39.550Z,8.95
2023-03-02T11:13:28.043Z,8.93
2023-03-02T11:16:16.725Z,8.89
2023-03-02T11:18:49.744Z,8.79
2023-03-02T11:21:23.851Z,8.73
2023-03-02T11:23:57.014Z,8.77
2023-03-02T11:26:27.769Z,8.85
2023-03-02T11:29:03.866Z,8.85
2023-03-02T11:31:52.472Z,8.87
2023-03-02T11:34:22.025Z,8.92
2023-03-02T11:36:59.845Z,8.94
2023-03-02T11:39:37.458Z,8.99
2023-03-02T11:42:20.456Z,9.00
2023-03-02T11:44:48.472Z,9.03
2023-03-02T11:47:16.356Z,9.00
2023-03-02T11:49:48.915Z,9.02
2023-03-02T11:52:20.401Z,8.97
2023-03-02T11:54:54.055Z,9.05
2023-03-02T11:57:23.200Z,9.13
2023-03-02T11:59:52.126Z,9.09
2023-03-02T12:02:19.479Z,9.05
2023-03-02T12:04:47.750Z,9.06
2023-03-02T12:07:23.914Z,9.04
2023-03-02T12:10:28.392Z,9.03
2023-03-02T12:13:14.888Z,9.02
2023-03-02T12:15:45.425Z,8.99
2023-03-02T12:18:43.238Z,8.97
2023-03-02T12:21:09.629Z,8.96
2023-03-02T12:23:53.101Z,8.94
2023-03-02T12:26:19.537Z,8.94
2023-03-02T12:29:07.063Z,8.91
2023-03-02T12:31:50.189Z,8.90
2023-03-02T12:34:42.965Z,8.91
2023-03-02T12:37:25.571Z,8.93
2023-03-02T12:40:10.771Z,8.96
2023-03-02T12:42:47.541Z,8.94
2023-03-02T12:45:13.974Z,8.95
2023-03-02T12:47:47.085Z,8.96
2023-03-02T12:50:20.662Z,8.99
2023-03-02T12:53:00.882Z,9.04
2023-03-02T12:55:27.912Z,9.00
2023-03-02T12:58:01.159Z,9.04
2023-03-02T13:00:31.033Z,9.06
2023-03-02T13:02:59.708Z,9.05
2023-03-02T13:05:32.300Z,9.03
2023-03-02T13:08:17.556Z,8.99
2023-03-02T13:10:49.943Z,8.97
2023-03-02T13:13:18.038Z,9.00
2023-03-02T13:15:55.266Z,9.02
2023-03-02T13:18:24.120Z,9.01
2023-03-02T13:20:51.517Z,9.03
2023-03-02T13:23:19.018Z,9.08
2023-03-02T13:26:41.059Z,9.18
2023-03-02T13:29:19.194Z,9.25
2023-03-02T13:31:48.488Z,9.35
2023-03-02T13:34:23.714Z,9.37
2023-03-02T13:36:51.436Z,9.36
2023-03-02T13:39:26.000Z,9.41
2023-03-02T13:41:55.937Z,9.41
2023-03-02T13:44:34.314Z,9.36
2023-03-02T13:47:01.988Z,9.39
2023-03-02T13:49:32.482Z,9.43
2023-03-02T13:52:08.302Z,9.50
2023-03-02T13:54:36.889Z,9.49
2023-03-02T13:57:05.184Z,9.50
2023-03-02T13:59:36.361Z,9.52
2023-03-02T14:02:03.353Z,9.59
2023-03-02T14:04:29.942Z,9.62
2023-03-02T14:06:56.540Z,9.67
2023-03-02T14:09:23.079Z,9.71
2023-03-02T14:11:55.054Z,9.73
2023-03-02T14:14:24.921Z,9.73
2023-03-02T14:16:51.719Z,9.74
2023-03-02T14:19:18.682Z,9.77
2023-03-02T14:21:46.236Z,9.77
2023-03-02T14:24:14.370Z,9.82
2023-03-02T14:26:47.290Z,9.82
2023-03-02T14:29:22.671Z,9.70
2023-03-02T14:31:49.286Z,9.73
2023-03-02T14:34:17.058Z,9.71
2023-03-02T14:36:46.098Z,9.75
2023-03-02T14:39:22.807Z,9.76
2023-03-02T14:41:54.171Z,9.71
2023-03-02T14:44:21.054Z,9.77
2023-03-02T14:46:47.557Z,9.81
2023-03-02T14:49:14.155Z,9.81
2023-03-02T14:51:41.845Z,9.78
2023-03-02T14:54:14.953Z,9.81
2023-03-02T14:56:43.051Z,9.88
2023-03-02T14:59:13.840Z,9.88
2023-03-02T15:01:41.796Z,9.81
2023-03-02T15:04:08.297Z,9.76
2023-03-02T15:06:38.124Z,9.81
2023-03-02T15:09:04.845Z,9.83
2023-03-02T15:11:31.768Z,9.86
2023-03-02T15:13:58.952Z,9.82
2023-03-02T15:16:25.656Z,9.88
2023-03-02T15:18:53.260Z,9.89
2023-03-02T15:21:24.324Z,9.87
2023-03-02T15:23:51.097Z,9.81
2023-03-02T15:26:17.915Z,9.73
2023-03-02T15:28:46.900Z,9.70
2023-03-02T15:31:16.185Z,9.69
2023-03-02T15:33:45.160Z,9.67
2023-03-02T15:36:12.542Z,9.64
2023-03-02T15:38:39.037Z,9.67
2023-03-02T15:41:12.824Z,9.67
2023-03-02T15:43:39.620Z,9.66
2023-03-02T15:46:09.123Z,9.60
2023-03-02T15:48:36.732Z,9.59
2023-03-02T15:51:06.464Z,9.59
2023-03-02T15:53:37.443Z,9.58
2023-03-02T15:56:09.438Z,9.57
2023-03-02T15:58:35.845Z,9.54
2023-03-02T16:01:12.344Z,9.54
2023-03-02T16:03:38.864Z,9.53
2023-03-02T16:06:05.771Z,9.55
2023-03-02T16:08:32.251Z,9.54
2023-03-02T16:11:00.789Z,9.52
2023-03-02T16:13:28.007Z,9.51
2023-03-02T16:15:54.496Z,9.48
2023-03-02T16:18:20.958Z,9.46
2023-03-02T16:20:47.646Z,9.41
2023-03-02T16:23:16.033Z,9.38
2023-03-02T16:25:44.122Z,9.35
2023-03-02T16:28:11.564Z,9.34
2023-03-02T16:30:39.402Z,9.30
2023-03-02T16:33:09.185Z,9.22
2023-03-02T16:35:37.069Z,9.20
2023-03-02T16:38:04.685Z,9.18
2023-03-02T16:40:31.962Z,9.13
2023-03-02T16:42:58.677Z,9.07
2023-03-02T16:45:26.925Z,8.99
2023-03-02T16:47:53.762Z,8.91
2023-03-02T16:50:20.763Z,8.84
2023-03-02T16:52:47.179Z,8.79
2023-03-02T16:55:17.506Z,8.80
2023-03-02T16:57:44.583Z,8.75
2023-03-02T17:00:18.069Z,8.68
2023-03-02T17:02:44.910Z,8.64
2023-03-02T17:05:13.971Z,8.59
2023-03-02T17:07:41.922Z,8.57
2023-03-02T17:10:12.172Z,8.50
2023-03-02T17:12:38.821Z,8.48
2023-03-02T17:15:05.908Z,8.36
2023-03-02T17:17:32.556Z,8.30
2023-03-02T17:19:59.093Z,8.27
2023-03-02T17:22:25.708Z,8.23
2023-03-02T17:24:52.327Z,8.11
2023-03-02T17:27:24.926Z,8.08
2023-03-02T17:29:52.274Z,8.11
2023-03-02T17:32:19.023Z,8.09
2023-03-02T17:34:46.874Z,8.09
2023-03-02T17:37:14.222Z,8.07
2023-03-02T17:39:40.650Z,8.02
2023-03-02T17:42:07.316Z,7.99
2023-03-02T17:44:34.595Z,8.01
2023-03-02T17:47:05.279Z,8.09
2023-03-02T17:49:32.000Z,8.04
2023-03-02T17:51:58.433Z,8.01
2023-03-02T17:54:24.957Z,7.99
2023-03-02T17:56:51.437Z,7.95
2023-03-02T17:59:18.195Z,7.85
2023-03-02T18:01:44.694Z,7.79
2023-03-02T18:04:11.221Z,7.70
2023-03-02T18:06:37.689Z,7.68
2023-03-02T18:09:04.242Z,7.67
2023-03-02T18:11:30.761Z,7.64
2023-03-02T18:13:58.146Z,7.61
2023-03-02T18:16:27.853Z,7.53
2023-03-02T18:18:54.703Z,7.38
2023-03-02T18:21:22.004Z,7.27
2023-03-02T18:23:48.755Z,7.26
2023-03-02T18:26:15.815Z,7.24
2023-03-02T18:28:42.690Z,7.21
2023-03-02T18:31:09.951Z,7.13
2023-03-02T18:33:36.438Z,7.12
2023-03-02T18:36:05.422Z,7.15
2023-03-02T18:38:33.629Z,7.13
2023-03-02T18:41:03.145Z,7.16
2023-03-02T18:43:32.571Z,7.22
2023-03-02T18:45:59.099Z,7.24
2023-03-02T18:48:25.611Z,7.22
2023-03-02T18:50:52.250Z,7.24
2023-03-02T18:53:18.838Z,7.24
2023-03-02T18:55:45.333Z,7.19
2023-03-02T18:58:18.724Z,7.16
2023-03-02T19:00:46.348Z,7.20
2023-03-02T19:03:15.224Z,7.22
2023-03-02T19:05:41.951Z,7.12
2023-03-02T19:08:08.666Z,7.13
2023-03-02T19:10:37.005Z,7.07
2023-03-02T19:13:03.576Z,6.99
2023-03-02T19:15:32.926Z,7.00
2023-03-02T19:17:59.404Z,6.96
2023-03-02T19:20:27.164Z,6.86
2023-03-02T19:22:55.036Z,6.80
2023-03-02T19:25:21.513Z,6.80
2023-03-02T19:27:48.273Z,6.86
2023-03-02T19:30:20.062Z,6.93
2023-03-02T19:32:46.861Z,6.81
2023-03-02T19:35:17.847Z,6.80
2023-03-02T19:37:44.916Z,6.79
2023-03-02T19:40:13.679Z,6.80
2023-03-02T19:42:40.719Z,6.93
2023-03-02T19:45:08.728Z,6.98
2023-03-02T19:47:35.233Z,6.95
2023-03-02T19:50:01.686Z,6.87
2023-03-02T19:52:28.128Z,6.84
2023-03-02T19:54:54.558Z,6.78
2023-03-02T19:57:21.118Z,6.82
2023-03-02T19:59:47.569Z,6.84
2023-03-02T20:02:15.024Z,6.77
2023-03-02T20:04:41.638Z,6.73
2023-03-02T20:07:08.086Z,6.68
2023-03-02T20:09:34.734Z,6.66
2023-03-02T20:12:02.580Z,6.65
2023-03-02T20:14:34.210Z,6.60
2023-03-02T20:17:02.334Z,6.47
2023-03-02T20:19:29.105Z,6.43
2023-03-02T20:21:55.633Z,6.33
2023-03-02T20:24:22.425Z,6.27
2023-03-02T20:26:49.294Z,6.16
2023-03-02T20:29:16.758Z,6.03
2023-03-02T20:31:43.745Z,5.94
2023-03-02T20:34:12.449Z,5.98
2023-03-02T20:36:39.032Z,5.96
2023-03-02T20:39:10.902Z,5.92
2023-03-02T20:41:38.267Z,5.86
2023-03-02T20:44:05.498Z,5.81
2023-03-02T20:46:37.515Z,5.79
2023-03-02T20:49:06.038Z,5.78
2023-03-02T20:51:32.591Z,5.75
2023-03-02T20:53:59.438Z,5.76
2023-03-02T20:56:25.971Z,5.72
2023-03-02T20:58:52.594Z,5.75
2023-03-02T21:01:20.753Z,5.76
2023-03-02T21:03:47.574Z,5.76
2023-03-02T21:06:15.309Z,5.77
2023-03-02T21:08:43.410Z,5.86
2023-03-02T21:11:15.661Z,5.89
2023-03-02T21:13:45.850Z,5.76
2023-03-02T21:16:18.553Z,5.52
2023-03-02T21:18:45.110Z,5.41
2023-03-02T21:21:11.680Z,5.33
2023-03-02T21:23:38.286Z,5.27
2023-03-02T21:26:04.972Z,5.26
2023-03-02T21:28:31.516Z,5.22
2023-03-02T21:30:58.024Z,5.35
2023-03-02T21:33:24.584Z,5.35
2023-03-02T21:35:51.121Z,5.43
2023-03-02T21:38:17.627Z,5.31
2023-03-02T21:40:46.012Z,5.24
2023-03-02T21:43:15.272Z,5.11
2023-03-02T21:45:42.086Z,5.04
2023-03-02T21:48:08.838Z,5.00
2023-03-02T21:50:37.909Z,5.07
2023-03-02T21:53:05.240Z,5.17
2023-03-02T21:55:32.364Z,5.29
2023-03-02T21:57:59.502Z,5.36
2023-03-02T22:00:32.690Z,5.37
2023-03-02T22:02:59.813Z,5.22
2023-03-02T22:05:27.092Z,5.22
2023-03-02T22:07:53.905Z,5.26
2023-03-02T22:10:29.599Z,5.13
2023-03-02T22:13:10.252Z,5.06
2023-03-02T22:15:36.677Z,5.04
2023-03-02T22:18:12.789Z,4.93
2023-03-02T22:20:42.681Z,4.78
2023-03-02T22:23:18.166Z,4.91
2023-03-02T22:25:44.884Z,4.97
2023-03-02T22:28:23.920Z,4.93
2023-03-02T22:30:51.614Z,4.77
2023-03-02T22:33:21.062Z,4.75
2023-03-02T22:35:49.037Z,4.70
2023-03-02T22:38:23.904Z,4.64
2023-03-02T22:40:50.938Z,4.69
2023-03-02T22:43:25.562Z,4.56
2023-03-02T22:45:54.365Z,4.58
2023-03-02T22:48:22.797Z,4.75
2023-03-02T22:50:50.311Z,4.73
2023-03-02T22:53:30.359Z,4.77
2023-03-02T22:56:02.214Z,4.77
2023-03-02T22:58:48.413Z,4.87
2023-03-02T23:01:22.522Z,4.87
2023-03-02T23:03:51.780Z,4.82
2023-03-02T23:06:30.960Z,4.68
2023-03-02T23:09:01.026Z,4.68
2023-03-02T23:11:28.859Z,4.64
2023-03-02T23:13:55.796Z,4.54
2023-03-02T23:16:24.016Z,4.48
2023-03-02T23:18:54.857Z,4.40
2023-03-02T23:21:38.604Z,4.57
2023-03-02T23:24:07.441Z,4.68
2023-03-02T23:26:34.629Z,4.67
2023-03-02T23:29:01.206Z,4.70
2023-03-02T23:31:27.800Z,4.58
2023-03-02T23:33:54.439Z,4.48
2023-03-02T23:36:21.028Z,4.30
2023-03-02T23:38:50.930Z,4.22
2023-03-02T23:41:18.224Z,4.40
2023-03-02T23:43:44.888Z,4.55
2023-03-02T23:46:14.027Z,4.64
2023-03-02T23:48:41.751Z,4.63
2023-03-02T23:51:11.530Z,4.56
2023-03-02T23:53:38.022Z,4.41
2023-03-02T23:56:04.709Z,4.30
2023-03-02T23:58:31.191Z,4.27
